createdAt,value
2022-12-03T00:04:02.966Z,0.88
2022-12-03T00:09:04.615Z,0.74
2022-12-03T00:14:06.567Z,0.66
2022-12-03T00:19:07.864Z,0.66
2022-12-03T00:24:09.904Z,0.55
2022-12-03T00:29:11.287Z,0.48
2022-12-03T00:34:12.799Z,0.51
2022-12-03T00:39:14.260Z,0.56
2022-12-03T00:44:16.337Z,0.57
2022-12-03T00:49:18.068Z,0.52
2022-12-03T00:54:19.717Z,0.41
2022-12-03T00:59:21.773Z,0.44
2022-12-03T01:04:22.935Z,0.36
2022-12-03T01:09:24.281Z,0.32
2022-12-03T01:14:26.284Z,0.38
2022-12-03T01:19:27.414Z,0.36
2022-12-03T01:24:29.456Z,0.42
2022-12-03T01:29:30.870Z,0.45
2022-12-03T01:34:32.271Z,0.5
2022-12-03T01:39:34.277Z,0.54
2022-12-03T01:44:36.034Z,0.46
2022-12-03T01:49:37.182Z,0.38
2022-12-03T01:54:38.849Z,0.38
2022-12-03T01:59:40.218Z,0.4
2022-12-03T02:04:41.527Z,0.28
2022-12-03T02:09:43.732Z,0.17
2022-12-03T02:14:45.314Z,0.2
2022-12-03T02:19:46.522Z,0.16
2022-12-03T02:24:48.716Z,0.13
2022-12-03T02:29:50.503Z,0.07
2022-12-03T02:34:52.664Z,0.13
2022-12-03T02:39:54.277Z,0.17
2022-12-03T02:44:59.377Z,0.14
2022-12-03T02:49:58.018Z,0
2022-12-03T02:55:00.199Z,-0.01
2022-12-03T03:00:01.453Z,0.05
2022-12-03T03:05:03.464Z,0.11
2022-12-03T03:10:04.752Z,0.07
2022-12-03T03:15:06.707Z,-0.09
2022-12-03T03:20:08.126Z,-0.05
2022-12-03T03:25:10.174Z,-0.03
2022-12-03T03:30:11.910Z,-0.04
2022-12-03T03:35:13.266Z,-0.17
2022-12-03T03:40:15.316Z,-0.24
2022-12-03T03:45:17.004Z,-0.38
2022-12-03T03:50:18.551Z,-0.26
2022-12-03T03:55:20.133Z,-0.17
2022-12-03T04:00:22.029Z,-0.27
2022-12-03T04:05:23.685Z,-0.36
2022-12-03T04:10:25.286Z,-0.42
2022-12-03T04:15:26.914Z,-0.34
2022-12-03T04:20:28.073Z,-0.29
2022-12-03T04:25:29.287Z,-0.32
2022-12-03T04:30:31.057Z,-0.28
2022-12-03T04:35:32.895Z,-0.19
2022-12-03T04:40:34.587Z,-0.34
2022-12-03T04:45:36.220Z,-0.29
2022-12-03T04:50:37.324Z,-0.3
2022-12-03T04:55:38.920Z,-0.29
2022-12-03T05:00:40.412Z,-0.29
2022-12-03T05:05:42.165Z,-0.33
2022-12-03T05:10:43.548Z,-0.38
2022-12-03T05:15:44.981Z,-0.36
2022-12-03T05:20:52.897Z,-0.29
2022-12-03T05:45:54.968Z,-0.21
2022-12-03T05:50:56.909Z,-0.23
2022-12-03T05:55:58.269Z,-0.31
2022-12-03T06:01:00.448Z,-0.45
2022-12-03T06:06:01.859Z,-0.45
2022-12-03T06:11:03.075Z,-0.35
2022-12-03T06:16:04.483Z,-0.37
2022-12-03T06:21:05.783Z,-0.33
2022-12-03T06:31:09.485Z,-0.35
2022-12-03T06:36:10.783Z,-0.28
2022-12-03T06:41:12.060Z,-0.23
2022-12-03T06:46:14.236Z,-0.25
2022-12-03T06:51:15.806Z,-0.19
2022-12-03T06:56:21.461Z,-0.12
2022-12-03T07:01:19.604Z,0
2022-12-03T07:06:20.774Z,0.08
2022-12-03T07:11:22.835Z,0.1
2022-12-03T07:16:24.382Z,0.11
2022-12-03T07:21:25.964Z,0.2
2022-12-03T07:26:27.729Z,0.25
2022-12-03T07:31:30.004Z,0.26
2022-12-03T07:36:31.577Z,0.14
2022-12-03T07:41:32.956Z,0.18
2022-12-03T07:46:35.063Z,0.27
2022-12-03T07:51:36.519Z,0.31
2022-12-03T07:56:38.239Z,0.3
2022-12-03T08:01:40.530Z,0.31
2022-12-03T08:06:42.121Z,0.41
2022-12-03T08:11:43.403Z,0.58
2022-12-03T08:16:45.029Z,0.72
2022-12-03T08:21:46.576Z,0.56
2022-12-03T08:26:48.123Z,0.65
2022-12-03T08:31:49.625Z,0.65
2022-12-03T08:36:51.478Z,0.72
2022-12-03T08:41:52.735Z,0.73
2022-12-03T08:46:54.050Z,0.57
2022-12-03T08:51:55.427Z,0.6
2022-12-03T08:56:57.269Z,0.67
2022-12-03T09:01:58.912Z,0.72
2022-12-03T09:07:00.994Z,0.82
2022-12-03T09:12:02.901Z,0.84
2022-12-03T09:17:04.179Z,0.89
2022-12-03T09:22:05.678Z,0.88
2022-12-03T09:27:07.581Z,0.85
2022-12-03T09:32:11.457Z,0.77
2022-12-03T09:37:10.625Z,0.75
2022-12-03T09:42:12.679Z,0.79
2022-12-03T09:47:14.417Z,0.73
2022-12-03T09:52:16.299Z,0.49
2022-12-03T09:57:17.807Z,0.2
2022-12-03T10:02:19.466Z,0.24
2022-12-03T10:07:20.987Z,0.26
2022-12-03T10:12:22.196Z,0.27
2022-12-03T10:17:23.544Z,0.35
2022-12-03T10:22:25.297Z,0.39
2022-12-03T10:27:27.090Z,0.52
2022-12-03T10:32:28.551Z,0.62
2022-12-03T10:37:30.533Z,0.66
2022-12-03T10:42:32.487Z,0.5
2022-12-03T10:47:34.490Z,0.54
2022-12-03T10:52:35.963Z,0.63
2022-12-03T10:57:41.147Z,0.71
2022-12-03T11:02:39.015Z,0.63
2022-12-03T11:07:41.110Z,0.61
2022-12-03T11:12:42.853Z,0.71
2022-12-03T11:17:44.225Z,0.76
2022-12-03T11:22:45.328Z,0.65
2022-12-03T11:27:47.140Z,0.46
2022-12-03T11:32:49.242Z,0.56
2022-12-03T11:37:50.400Z,0.67
2022-12-03T11:42:52.490Z,0.79
2022-12-03T11:47:54.238Z,0.77
2022-12-03T11:52:55.958Z,0.66
2022-12-03T11:57:57.299Z,0.49
2022-12-03T12:02:58.861Z,0.58
2022-12-03T12:08:00.394Z,0.65
2022-12-03T12:13:02.070Z,0.6
2022-12-03T12:18:04.140Z,0.6
2022-12-03T12:23:05.404Z,0.66
2022-12-03T12:28:07.192Z,0.68
2022-12-03T12:33:08.592Z,0.56
2022-12-03T12:38:10.607Z,0.48
2022-12-03T12:43:15.458Z,0.46
2022-12-03T12:48:14.645Z,0.52
2022-12-03T12:53:16.380Z,0.64
2022-12-03T12:58:18.175Z,0.6
2022-12-03T13:03:20.090Z,0.61
2022-12-03T13:08:22.251Z,0.73
2022-12-03T13:13:23.985Z,0.66
2022-12-03T13:18:25.461Z,0.41
2022-12-03T13:23:27.014Z,0.38
2022-12-03T13:28:28.530Z,0.11
2022-12-03T13:33:30.105Z,0.15
2022-12-03T13:38:31.977Z,0.13
2022-12-03T13:43:33.283Z,0.08
2022-12-03T13:48:35.014Z,-0.03
2022-12-03T13:53:36.571Z,-0.01
2022-12-03T13:58:37.822Z,0.06
2022-12-03T14:03:39.090Z,0.04
2022-12-03T14:08:40.563Z,0.05
2022-12-03T14:08:46.894Z,0.05
2022-12-03T14:13:48.665Z,-0.02
2022-12-03T14:18:50.572Z,0.07
2022-12-03T14:23:51.852Z,0.15
2022-12-03T14:28:53.614Z,0.03
2022-12-03T14:33:54.929Z,-0.02
2022-12-03T14:38:56.902Z,-0.06
2022-12-03T14:43:58.297Z,-0.02
2022-12-03T14:49:00.116Z,-0.21
2022-12-03T14:54:01.863Z,-0.2
2022-12-03T14:59:03.042Z,-0.23
2022-12-03T15:04:04.546Z,-0.19
2022-12-03T15:09:06.374Z,-0.09
2022-12-03T15:14:07.547Z,-0.2
2022-12-03T15:19:09.050Z,-0.21
2022-12-03T15:24:10.778Z,-0.26
2022-12-03T15:29:12.251Z,-0.29
2022-12-03T15:34:17.418Z,-0.37
2022-12-03T15:39:15.349Z,-0.54
2022-12-03T15:44:17.192Z,-0.61
2022-12-03T15:49:18.687Z,-0.71
2022-12-03T15:54:20.272Z,-0.62
2022-12-03T15:59:22.335Z,-0.58
2022-12-03T16:04:24.500Z,-0.58
2022-12-03T16:09:27.538Z,-0.55
2022-12-03T16:14:28.327Z,-0.49
2022-12-03T16:19:29.477Z,-0.49
2022-12-03T16:24:30.649Z,-0.45
2022-12-03T16:29:32.503Z,-0.43
2022-12-03T16:34:33.978Z,-0.4
2022-12-03T16:39:35.496Z,-0.34
2022-12-03T16:44:36.784Z,-0.35
2022-12-03T16:49:38.680Z,-0.36
2022-12-03T16:54:40.564Z,-0.36
2022-12-03T16:59:41.918Z,-0.36
2022-12-03T17:04:43.818Z,-0.32
2022-12-03T17:09:45.255Z,-0.33
2022-12-03T17:14:46.568Z,-0.45
2022-12-03T17:19:47.963Z,-0.4
2022-12-03T17:24:49.136Z,-0.39
2022-12-03T17:29:51.458Z,-0.33
2022-12-03T17:34:53.177Z,-0.25
2022-12-03T17:39:54.643Z,-0.29
2022-12-03T17:44:56.388Z,-0.29
2022-12-03T17:49:58.389Z,-0.29
2022-12-03T17:55:11.146Z,-0.26
2022-12-03T18:00:01.429Z,-0.28
2022-12-03T18:05:02.844Z,-0.32
2022-12-03T18:10:04.412Z,-0.38
2022-12-03T18:15:06.280Z,-0.48
2022-12-03T18:20:07.695Z,-0.46
2022-12-03T18:25:09.585Z,-0.45
2022-12-03T18:30:11.074Z,-0.44
2022-12-03T18:35:13.150Z,-0.38
2022-12-03T18:40:15.000Z,-0.39
2022-12-03T18:45:17.135Z,-0.3
2022-12-03T18:50:19.403Z,-0.27
2022-12-03T18:55:21.537Z,-0.34
2022-12-03T19:00:23.195Z,-0.3
2022-12-03T19:05:25.186Z,-0.27
2022-12-03T19:10:27.350Z,-0.22
2022-12-03T19:15:28.518Z,-0.19
2022-12-03T19:20:30.430Z,-0.26
2022-12-03T19:25:32.371Z,-0.23
2022-12-03T19:30:33.709Z,-0.15
2022-12-03T19:35:35.720Z,-0.1
2022-12-03T19:40:37.574Z,-0.26
2022-12-03T19:45:39.397Z,-0.49
2022-12-03T19:50:40.971Z,-0.43
2022-12-03T19:55:42.251Z,-0.34
2022-12-03T20:00:44.131Z,-0.25
2022-12-03T20:05:46.349Z,-0.21
2022-12-03T20:51:01.591Z,-0.12
2022-12-03T21:06:07.281Z,-0.03
2022-12-03T21:16:10.978Z,-0.02
2022-12-03T21:21:12.889Z,-0.17
2022-12-03T21:26:14.547Z,-0.14
2022-12-03T21:31:16.735Z,-0.07
2022-12-03T21:36:18.237Z,-0.02
2022-12-03T21:41:20.117Z,-0.06
2022-12-03T21:47:09.012Z,-0.13
2022-12-03T21:51:23.730Z,-0.15
2022-12-03T21:56:25.554Z,-0.13
2022-12-03T22:01:26.971Z,-0.08
2022-12-03T22:06:28.672Z,-0.06
2022-12-03T22:11:30.813Z,-0.06
2022-12-03T22:16:32.174Z,-0.02
2022-12-03T22:21:34.236Z,0.03
2022-12-03T22:26:35.756Z,0.03
2022-12-03T22:31:37.474Z,0.03
2022-12-03T22:36:39.221Z,0.06
2022-12-03T22:41:40.925Z,0.14
2022-12-03T22:46:42.978Z,0.22
2022-12-03T22:51:44.507Z,0.26
2022-12-03T22:56:46.402Z,0.27
2022-12-03T23:16:52.901Z,0.23
2022-12-03T23:21:54.733Z,0.22
2022-12-03T23:26:56.286Z,0.24
2022-12-03T23:31:58.187Z,0.28
2022-12-03T23:37:00.153Z,0.35
2022-12-03T23:42:01.948Z,0.35
2022-12-03T23:47:03.883Z,0.32
2022-12-03T23:52:05.260Z,0.28
2022-12-03T23:57:07.413Z,0.12
